sensor_id;sensor_type;location;lat;lon;timestamp;P1;durP1;ratioP1;P2;durP2;ratioP2
8159;SDS011;27404;52.398;9.646;2024-02-14T00:00:35;3.00;;;1.60;;
8159;SDS011;27404;52.398;9.646;2024-02-14T00:03:00;3.20;;;1.57;;
8159;SDS011;27404;52.398;9.646;2024-02-14T00:05:26;4.37;;;1.67;;
8159;SDS011;27404;52.398;9.646;2024-02-14T00:07:51;2.80;;;1.57;;
8159;SDS011;27404;52.398;9.646;2024-02-14T00:10:17;2.23;;;1.20;;
8159;SDS011;27404;52.398;9.646;2024-02-14T00:12:42;2.90;;;1.40;;
8159;SDS011;27404;52.398;9.646;2024-02-14T00:15:08;3.70;;;1.40;;
8159;SDS011;27404;52.398;9.646;2024-02-14T00:17:34;3.47;;;1.33;;
8159;SDS011;27404;52.398;9.646;2024-02-14T00:20:00;3.23;;;1.40;;
8159;SDS011;27404;52.398;9.646;2024-02-14T00:22:26;2.50;;;1.57;;
8159;SDS011;27404;52.398;9.646;2024-02-14T00:24:52;5.80;;;1.63;;
8159;SDS011;27404;52.398;9.646;2024-02-14T00:27:17;4.00;;;1.60;;
8159;SDS011;27404;52.398;9.646;2024-02-14T00:29:43;7.37;;;1.67;;
8159;SDS011;27404;52.398;9.646;2024-02-14T00:32:11;2.97;;;1.33;;
8159;SDS011;27404;52.398;9.646;2024-02-14T00:34:37;2.90;;;1.60;;
8159;SDS011;27404;52.398;9.646;2024-02-14T00:37:02;2.50;;;1.43;;
8159;SDS011;27404;52.398;9.646;2024-02-14T00:39:28;3.87;;;1.67;;
8159;SDS011;27404;52.398;9.646;2024-02-14T00:41:54;3.00;;;1.40;;
8159;SDS011;27404;52.398;9.646;2024-02-14T00:44:21;3.63;;;1.60;;
8159;SDS011;27404;52.398;9.646;2024-02-14T00:46:46;3.93;;;1.60;;
8159;SDS011;27404;52.398;9.646;2024-02-14T00:49:13;3.57;;;2.23;;
8159;SDS011;27404;52.398;9.646;2024-02-14T00:51:38;2.73;;;1.80;;
8159;SDS011;27404;52.398;9.646;2024-02-14T00:54:05;6.90;;;2.13;;
8159;SDS011;27404;52.398;9.646;2024-02-14T00:56:30;4.87;;;2.00;;
8159;SDS011;27404;52.398;9.646;2024-02-14T00:58:56;3.43;;;1.70;;
8159;SDS011;27404;52.398;9.646;2024-02-14T01:01:21;2.47;;;1.60;;
8159;SDS011;27404;52.398;9.646;2024-02-14T01:03:47;3.93;;;1.77;;
8159;SDS011;27404;52.398;9.646;2024-02-14T01:06:12;3.07;;;2.13;;
8159;SDS011;27404;52.398;9.646;2024-02-14T01:08:39;6.03;;;1.67;;
8159;SDS011;27404;52.398;9.646;2024-02-14T01:11:06;4.20;;;2.00;;
8159;SDS011;27404;52.398;9.646;2024-02-14T01:13:32;4.23;;;1.80;;
8159;SDS011;27404;52.398;9.646;2024-02-14T01:15:57;4.50;;;1.87;;
8159;SDS011;27404;52.398;9.646;2024-02-14T01:18:23;3.70;;;1.90;;
8159;SDS011;27404;52.398;9.646;2024-02-14T01:20:49;6.37;;;2.10;;
8159;SDS011;27404;52.398;9.646;2024-02-14T01:23:14;3.77;;;1.83;;
8159;SDS011;27404;52.398;9.646;2024-02-14T01:25:40;2.83;;;1.70;;
8159;SDS011;27404;52.398;9.646;2024-02-14T01:28:07;5.70;;;1.83;;
8159;SDS011;27404;52.398;9.646;2024-02-14T01:30:33;3.50;;;1.50;;
8159;SDS011;27404;52.398;9.646;2024-02-14T01:33:01;4.43;;;2.00;;
8159;SDS011;27404;52.398;9.646;2024-02-14T01:35:31;2.57;;;1.70;;
8159;SDS011;27404;52.398;9.646;2024-02-14T01:37:57;3.27;;;1.70;;
8159;SDS011;27404;52.398;9.646;2024-02-14T01:40:22;3.33;;;1.80;;
8159;SDS011;27404;52.398;9.646;2024-02-14T01:42:48;3.83;;;1.53;;
8159;SDS011;27404;52.398;9.646;2024-02-14T01:45:14;3.47;;;1.80;;
8159;SDS011;27404;52.398;9.646;2024-02-14T01:47:40;4.07;;;1.53;;
8159;SDS011;27404;52.398;9.646;2024-02-14T01:50:07;5.90;;;1.80;;
8159;SDS011;27404;52.398;9.646;2024-02-14T01:52:36;3.17;;;1.97;;
8159;SDS011;27404;52.398;9.646;2024-02-14T01:55:04;3.47;;;1.70;;
8159;SDS011;27404;52.398;9.646;2024-02-14T01:57:30;3.53;;;1.60;;
8159;SDS011;27404;52.398;9.646;2024-02-14T01:59:56;2.83;;;1.50;;
8159;SDS011;27404;52.398;9.646;2024-02-14T02:02:25;4.13;;;1.77;;
8159;SDS011;27404;52.398;9.646;2024-02-14T02:04:52;2.47;;;1.50;;
8159;SDS011;27404;52.398;9.646;2024-02-14T02:07:18;4.43;;;1.70;;
8159;SDS011;27404;52.398;9.646;2024-02-14T02:09:45;3.10;;;1.67;;
8159;SDS011;27404;52.398;9.646;2024-02-14T02:12:10;3.60;;;1.50;;
8159;SDS011;27404;52.398;9.646;2024-02-14T02:14:36;6.23;;;1.70;;
8159;SDS011;27404;52.398;9.646;2024-02-14T02:17:02;4.60;;;1.90;;
8159;SDS011;27404;52.398;9.646;2024-02-14T02:19:32;4.20;;;1.50;;
8159;SDS011;27404;52.398;9.646;2024-02-14T02:21:58;3.13;;;1.80;;
8159;SDS011;27404;52.398;9.646;2024-02-14T02:24:24;3.33;;;1.67;;
8159;SDS011;27404;52.398;9.646;2024-02-14T02:26:49;3.93;;;2.10;;
8159;SDS011;27404;52.398;9.646;2024-02-14T02:29:14;5.60;;;2.17;;
8159;SDS011;27404;52.398;9.646;2024-02-14T02:31:41;5.10;;;2.20;;
8159;SDS011;27404;52.398;9.646;2024-02-14T02:34:06;7.83;;;2.03;;
8159;SDS011;27404;52.398;9.646;2024-02-14T02:36:35;5.00;;;2.00;;
8159;SDS011;27404;52.398;9.646;2024-02-14T02:39:03;4.40;;;2.00;;
8159;SDS011;27404;52.398;9.646;2024-02-14T02:41:29;3.47;;;1.87;;
8159;SDS011;27404;52.398;9.646;2024-02-14T02:43:56;5.47;;;2.30;;
8159;SDS011;27404;52.398;9.646;2024-02-14T02:46:50;4.07;;;2.30;;
8159;SDS011;27404;52.398;9.646;2024-02-14T02:49:15;3.87;;;2.20;;
8159;SDS011;27404;52.398;9.646;2024-02-14T02:51:41;4.63;;;2.07;;
8159;SDS011;27404;52.398;9.646;2024-02-14T02:54:06;6.70;;;2.40;;
8159;SDS011;27404;52.398;9.646;2024-02-14T02:56:33;3.87;;;1.93;;
8159;SDS011;27404;52.398;9.646;2024-02-14T02:58:59;5.13;;;2.30;;
8159;SDS011;27404;52.398;9.646;2024-02-14T03:01:24;5.37;;;2.50;;
8159;SDS011;27404;52.398;9.646;2024-02-14T03:03:53;4.83;;;2.40;;
8159;SDS011;27404;52.398;9.646;2024-02-14T03:06:18;3.63;;;2.33;;
8159;SDS011;27404;52.398;9.646;2024-02-14T03:08:45;5.63;;;2.60;;
8159;SDS011;27404;52.398;9.646;2024-02-14T03:11:10;5.30;;;2.70;;
8159;SDS011;27404;52.398;9.646;2024-02-14T03:13:36;4.67;;;2.37;;
8159;SDS011;27404;52.398;9.646;2024-02-14T03:16:04;6.10;;;2.43;;
8159;SDS011;27404;52.398;9.646;2024-02-14T03:18:30;5.80;;;2.50;;
8159;SDS011;27404;52.398;9.646;2024-02-14T03:20:56;4.30;;;3.10;;
8159;SDS011;27404;52.398;9.646;2024-02-14T03:23:21;5.23;;;2.53;;
8159;SDS011;27404;52.398;9.646;2024-02-14T03:25:47;5.00;;;2.40;;
8159;SDS011;27404;52.398;9.646;2024-02-14T03:28:13;6.00;;;2.40;;
8159;SDS011;27404;52.398;9.646;2024-02-14T03:30:39;4.00;;;2.60;;
8159;SDS011;27404;52.398;9.646;2024-02-14T03:33:05;4.90;;;2.70;;
8159;SDS011;27404;52.398;9.646;2024-02-14T03:35:32;7.03;;;2.50;;
8159;SDS011;27404;52.398;9.646;2024-02-14T03:37:59;3.67;;;2.23;;
8159;SDS011;27404;52.398;9.646;2024-02-14T03:40:26;5.83;;;2.70;;
8159;SDS011;27404;52.398;9.646;2024-02-14T03:42:52;5.70;;;2.80;;
8159;SDS011;27404;52.398;9.646;2024-02-14T03:45:18;7.50;;;3.23;;
8159;SDS011;27404;52.398;9.646;2024-02-14T03:47:44;4.23;;;2.67;;
8159;SDS011;27404;52.398;9.646;2024-02-14T03:50:09;6.97;;;3.03;;
8159;SDS011;27404;52.398;9.646;2024-02-14T03:52:35;6.50;;;2.70;;
8159;SDS011;27404;52.398;9.646;2024-02-14T03:55:00;4.27;;;2.63;;
8159;SDS011;27404;52.398;9.646;2024-02-14T03:57:26;7.93;;;3.80;;
8159;SDS011;27404;52.398;9.646;2024-02-14T03:59:55;5.57;;;3.07;;
8159;SDS011;27404;52.398;9.646;2024-02-14T04:02:21;6.07;;;2.33;;
8159;SDS011;27404;52.398;9.646;2024-02-14T04:04:48;6.00;;;3.20;;
8159;SDS011;27404;52.398;9.646;2024-02-14T04:07:14;8.27;;;2.13;;
8159;SDS011;27404;52.398;9.646;2024-02-14T04:09:40;5.23;;;2.50;;
8159;SDS011;27404;52.398;9.646;2024-02-14T04:12:05;4.77;;;2.43;;
8159;SDS011;27404;52.398;9.646;2024-02-14T04:14:31;4.57;;;2.53;;
8159;SDS011;27404;52.398;9.646;2024-02-14T04:16:56;4.30;;;2.40;;
8159;SDS011;27404;52.398;9.646;2024-02-14T04:19:22;6.97;;;3.03;;
8159;SDS011;27404;52.398;9.646;2024-02-14T04:21:47;4.63;;;2.50;;
8159;SDS011;27404;52.398;9.646;2024-02-14T04:24:13;4.60;;;2.60;;
8159;SDS011;27404;52.398;9.646;2024-02-14T04:26:39;4.23;;;2.60;;
8159;SDS011;27404;52.398;9.646;2024-02-14T04:29:05;6.33;;;3.00;;
8159;SDS011;27404;52.398;9.646;2024-02-14T04:31:30;5.57;;;2.47;;
8159;SDS011;27404;52.398;9.646;2024-02-14T04:33:56;6.80;;;3.20;;
8159;SDS011;27404;52.398;9.646;2024-02-14T04:36:22;4.83;;;2.37;;
8159;SDS011;27404;52.398;9.646;2024-02-14T04:38:48;5.87;;;2.63;;
8159;SDS011;27404;52.398;9.646;2024-02-14T04:41:14;6.33;;;2.63;;
8159;SDS011;27404;52.398;9.646;2024-02-14T04:43:40;5.47;;;2.90;;
8159;SDS011;27404;52.398;9.646;2024-02-14T04:46:05;5.43;;;2.10;;
8159;SDS011;27404;52.398;9.646;2024-02-14T04:48:35;5.90;;;2.80;;
8159;SDS011;27404;52.398;9.646;2024-02-14T04:51:01;6.33;;;2.77;;
8159;SDS011;27404;52.398;9.646;2024-02-14T04:53:27;4.47;;;2.83;;
8159;SDS011;27404;52.398;9.646;2024-02-14T04:55:53;5.43;;;2.60;;
8159;SDS011;27404;52.398;9.646;2024-02-14T04:58:19;6.97;;;2.57;;
8159;SDS011;27404;52.398;9.646;2024-02-14T05:00:45;6.50;;;2.80;;
8159;SDS011;27404;52.398;9.646;2024-02-14T05:03:10;6.17;;;2.50;;
8159;SDS011;27404;52.398;9.646;2024-02-14T05:05:36;7.00;;;2.67;;
8159;SDS011;27404;52.398;9.646;2024-02-14T05:08:01;4.53;;;2.60;;
8159;SDS011;27404;52.398;9.646;2024-02-14T05:10:30;5.53;;;2.70;;
8159;SDS011;27404;52.398;9.646;2024-02-14T05:12:56;3.30;;;2.30;;
8159;SDS011;27404;52.398;9.646;2024-02-14T05:15:22;4.53;;;2.80;;
8159;SDS011;27404;52.398;9.646;2024-02-14T05:17:47;8.67;;;3.20;;
8159;SDS011;27404;52.398;9.646;2024-02-14T05:20:14;8.63;;;2.70;;
8159;SDS011;27404;52.398;9.646;2024-02-14T05:22:39;3.53;;;2.40;;
8159;SDS011;27404;52.398;9.646;2024-02-14T05:25:05;8.33;;;2.47;;
8159;SDS011;27404;52.398;9.646;2024-02-14T05:27:33;4.20;;;2.80;;
8159;SDS011;27404;52.398;9.646;2024-02-14T05:29:59;7.63;;;2.80;;
8159;SDS011;27404;52.398;9.646;2024-02-14T05:32:24;6.40;;;2.70;;
8159;SDS011;27404;52.398;9.646;2024-02-14T05:34:50;6.77;;;3.20;;
8159;SDS011;27404;52.398;9.646;2024-02-14T05:37:16;3.57;;;2.70;;
8159;SDS011;27404;52.398;9.646;2024-02-14T05:39:42;8.03;;;3.43;;
8159;SDS011;27404;52.398;9.646;2024-02-14T05:42:07;6.50;;;3.17;;
8159;SDS011;27404;52.398;9.646;2024-02-14T05:44:33;6.77;;;2.80;;
8159;SDS011;27404;52.398;9.646;2024-02-14T05:46:58;7.20;;;3.27;;
8159;SDS011;27404;52.398;9.646;2024-02-14T05:49:25;4.90;;;2.80;;
8159;SDS011;27404;52.398;9.646;2024-02-14T05:51:51;8.90;;;3.57;;
8159;SDS011;27404;52.398;9.646;2024-02-14T05:54:18;6.90;;;3.60;;
8159;SDS011;27404;52.398;9.646;2024-02-14T05:56:45;5.33;;;3.47;;
8159;SDS011;27404;52.398;9.646;2024-02-14T05:59:11;8.17;;;3.40;;
8159;SDS011;27404;52.398;9.646;2024-02-14T06:01:36;9.03;;;3.43;;
8159;SDS011;27404;52.398;9.646;2024-02-14T06:04:02;6.50;;;3.43;;
8159;SDS011;27404;52.398;9.646;2024-02-14T06:06:27;5.57;;;3.23;;
8159;SDS011;27404;52.398;9.646;2024-02-14T06:08:53;5.83;;;3.03;;
8159;SDS011;27404;52.398;9.646;2024-02-14T06:11:19;11.37;;;3.57;;
8159;SDS011;27404;52.398;9.646;2024-02-14T06:13:49;4.83;;;3.23;;
8159;SDS011;27404;52.398;9.646;2024-02-14T06:16:14;5.03;;;3.13;;
8159;SDS011;27404;52.398;9.646;2024-02-14T06:18:40;5.33;;;3.13;;
8159;SDS011;27404;52.398;9.646;2024-02-14T06:21:06;8.33;;;3.10;;
8159;SDS011;27404;52.398;9.646;2024-02-14T06:23:31;5.77;;;2.57;;
8159;SDS011;27404;52.398;9.646;2024-02-14T06:25:57;4.63;;;2.80;;
8159;SDS011;27404;52.398;9.646;2024-02-14T06:28:23;4.27;;;2.60;;
8159;SDS011;27404;52.398;9.646;2024-02-14T06:30:48;8.53;;;2.83;;
8159;SDS011;27404;52.398;9.646;2024-02-14T06:33:14;4.97;;;3.03;;
8159;SDS011;27404;52.398;9.646;2024-02-14T06:35:39;4.17;;;2.77;;
8159;SDS011;27404;52.398;9.646;2024-02-14T06:38:05;6.07;;;4.20;;
8159;SDS011;27404;52.398;9.646;2024-02-14T06:40:31;5.97;;;3.13;;
8159;SDS011;27404;52.398;9.646;2024-02-14T06:42:57;4.00;;;3.33;;
8159;SDS011;27404;52.398;9.646;2024-02-14T06:45:24;4.30;;;2.80;;
8159;SDS011;27404;52.398;9.646;2024-02-14T06:47:50;5.23;;;2.67;;
8159;SDS011;27404;52.398;9.646;2024-02-14T06:50:16;4.20;;;2.77;;
8159;SDS011;27404;52.398;9.646;2024-02-14T06:52:41;4.97;;;3.07;;
8159;SDS011;27404;52.398;9.646;2024-02-14T06:55:07;4.37;;;2.93;;
8159;SDS011;27404;52.398;9.646;2024-02-14T06:57:33;4.50;;;2.70;;
8159;SDS011;27404;52.398;9.646;2024-02-14T06:59:58;4.20;;;2.43;;
8159;SDS011;27404;52.398;9.646;2024-02-14T07:02:23;3.97;;;2.57;;
8159;SDS011;27404;52.398;9.646;2024-02-14T07:04:53;4.43;;;2.47;;
8159;SDS011;27404;52.398;9.646;2024-02-14T07:07:19;2.83;;;2.00;;
8159;SDS011;27404;52.398;9.646;2024-02-14T07:09:45;6.20;;;2.30;;
8159;SDS011;27404;52.398;9.646;2024-02-14T07:12:11;3.33;;;2.20;;
8159;SDS011;27404;52.398;9.646;2024-02-14T07:14:36;3.67;;;2.23;;
8159;SDS011;27404;52.398;9.646;2024-02-14T07:17:01;4.23;;;1.80;;
8159;SDS011;27404;52.398;9.646;2024-02-14T07:19:27;2.97;;;1.67;;
8159;SDS011;27404;52.398;9.646;2024-02-14T07:21:53;2.53;;;1.60;;
8159;SDS011;27404;52.398;9.646;2024-02-14T07:24:18;2.17;;;1.53;;
8159;SDS011;27404;52.398;9.646;2024-02-14T07:26:44;5.43;;;1.60;;
8159;SDS011;27404;52.398;9.646;2024-02-14T07:29:09;2.10;;;1.50;;
8159;SDS011;27404;52.398;9.646;2024-02-14T07:31:35;5.23;;;2.43;;
8159;SDS011;27404;52.398;9.646;2024-02-14T07:34:00;4.50;;;1.60;;
8159;SDS011;27404;52.398;9.646;2024-02-14T07:36:28;2.47;;;1.50;;
8159;SDS011;27404;52.398;9.646;2024-02-14T07:38:56;2.33;;;1.33;;
8159;SDS011;27404;52.398;9.646;2024-02-14T07:41:22;3.30;;;1.47;;
8159;SDS011;27404;52.398;9.646;2024-02-14T07:43:47;2.17;;;1.60;;
8159;SDS011;27404;52.398;9.646;2024-02-14T07:46:19;2.37;;;1.57;;
8159;SDS011;27404;52.398;9.646;2024-02-14T07:48:45;3.73;;;2.20;;
8159;SDS011;27404;52.398;9.646;2024-02-14T07:51:12;2.73;;;1.27;;
8159;SDS011;27404;52.398;9.646;2024-02-14T07:53:37;2.83;;;1.90;;
8159;SDS011;27404;52.398;9.646;2024-02-14T07:56:03;2.33;;;1.50;;
8159;SDS011;27404;52.398;9.646;2024-02-14T07:58:28;1.63;;;1.30;;
8159;SDS011;27404;52.398;9.646;2024-02-14T08:00:54;3.10;;;1.40;;
8159;SDS011;27404;52.398;9.646;2024-02-14T08:03:20;4.50;;;1.13;;
8159;SDS011;27404;52.398;9.646;2024-02-14T08:05:45;1.97;;;1.40;;
8159;SDS011;27404;52.398;9.646;2024-02-14T08:08:11;1.70;;;1.10;;
8159;SDS011;27404;52.398;9.646;2024-02-14T08:10:36;2.07;;;1.20;;
8159;SDS011;27404;52.398;9.646;2024-02-14T08:13:01;1.53;;;1.13;;
8159;SDS011;27404;52.398;9.646;2024-02-14T08:15:29;1.33;;;1.00;;
8159;SDS011;27404;52.398;9.646;2024-02-14T08:17:55;1.17;;;0.93;;
8159;SDS011;27404;52.398;9.646;2024-02-14T08:20:21;1.40;;;0.97;;
8159;SDS011;27404;52.398;9.646;2024-02-14T08:22:48;1.37;;;1.00;;
8159;SDS011;27404;52.398;9.646;2024-02-14T08:25:14;2.00;;;1.20;;
8159;SDS011;27404;52.398;9.646;2024-02-14T08:27:40;1.77;;;1.30;;
8159;SDS011;27404;52.398;9.646;2024-02-14T08:30:06;2.33;;;1.40;;
8159;SDS011;27404;52.398;9.646;2024-02-14T08:32:33;1.80;;;1.40;;
8159;SDS011;27404;52.398;9.646;2024-02-14T08:34:59;1.43;;;1.20;;
8159;SDS011;27404;52.398;9.646;2024-02-14T08:37:26;1.60;;;1.17;;
8159;SDS011;27404;52.398;9.646;2024-02-14T08:39:52;1.80;;;1.30;;
8159;SDS011;27404;52.398;9.646;2024-02-14T08:42:17;1.70;;;1.30;;
8159;SDS011;27404;52.398;9.646;2024-02-14T08:44:42;1.97;;;1.47;;
8159;SDS011;27404;52.398;9.646;2024-02-14T08:47:08;1.67;;;1.43;;
8159;SDS011;27404;52.398;9.646;2024-02-14T08:49:34;2.00;;;1.60;;
8159;SDS011;27404;52.398;9.646;2024-02-14T08:51:59;2.40;;;1.93;;
8159;SDS011;27404;52.398;9.646;2024-02-14T08:54:25;2.57;;;1.90;;
8159;SDS011;27404;52.398;9.646;2024-02-14T08:56:52;3.67;;;2.67;;
8159;SDS011;27404;52.398;9.646;2024-02-14T08:59:20;3.93;;;2.47;;
8159;SDS011;27404;52.398;9.646;2024-02-14T09:01:46;3.33;;;2.67;;
8159;SDS011;27404;52.398;9.646;2024-02-14T09:04:13;4.20;;;3.27;;
8159;SDS011;27404;52.398;9.646;2024-02-14T09:06:39;4.67;;;3.93;;
8159;SDS011;27404;52.398;9.646;2024-02-14T09:09:06;5.13;;;4.23;;
8159;SDS011;27404;52.398;9.646;2024-02-14T09:11:32;4.80;;;4.13;;
8159;SDS011;27404;52.398;9.646;2024-02-14T09:13:57;6.70;;;4.90;;
8159;SDS011;27404;52.398;9.646;2024-02-14T09:16:29;6.83;;;5.33;;
8159;SDS011;27404;52.398;9.646;2024-02-14T09:18:55;6.63;;;5.63;;
8159;SDS011;27404;52.398;9.646;2024-02-14T09:21:21;6.63;;;5.40;;
8159;SDS011;27404;52.398;9.646;2024-02-14T09:23:47;9.10;;;5.70;;
8159;SDS011;27404;52.398;9.646;2024-02-14T09:26:12;8.07;;;5.87;;
8159;SDS011;27404;52.398;9.646;2024-02-14T09:28:41;9.03;;;5.93;;
8159;SDS011;27404;52.398;9.646;2024-02-14T09:31:06;7.60;;;6.40;;
8159;SDS011;27404;52.398;9.646;2024-02-14T09:33:34;7.67;;;6.33;;
8159;SDS011;27404;52.398;9.646;2024-02-14T09:36:02;8.63;;;6.47;;
8159;SDS011;27404;52.398;9.646;2024-02-14T09:38:28;8.40;;;6.03;;
8159;SDS011;27404;52.398;9.646;2024-02-14T09:40:54;7.67;;;6.37;;
8159;SDS011;27404;52.398;9.646;2024-02-14T09:43:28;8.60;;;6.37;;
8159;SDS011;27404;52.398;9.646;2024-02-14T09:46:02;9.40;;;6.90;;
8159;SDS011;27404;52.398;9.646;2024-02-14T09:48:29;8.70;;;6.43;;
8159;SDS011;27404;52.398;9.646;2024-02-14T09:50:56;8.33;;;6.73;;
8159;SDS011;27404;52.398;9.646;2024-02-14T09:53:22;6.93;;;5.83;;
8159;SDS011;27404;52.398;9.646;2024-02-14T09:55:48;8.20;;;6.10;;
8159;SDS011;27404;52.398;9.646;2024-02-14T09:58:15;8.67;;;6.17;;
8159;SDS011;27404;52.398;9.646;2024-02-14T10:00:42;8.90;;;6.40;;
8159;SDS011;27404;52.398;9.646;2024-02-14T10:03:08;8.40;;;6.40;;
8159;SDS011;27404;52.398;9.646;2024-02-14T10:05:33;8.30;;;5.50;;
8159;SDS011;27404;52.398;9.646;2024-02-14T10:07:59;7.70;;;6.03;;
8159;SDS011;27404;52.398;9.646;2024-02-14T10:10:26;7.27;;;5.73;;
8159;SDS011;27404;52.398;9.646;2024-02-14T10:12:54;8.07;;;6.20;;
8159;SDS011;27404;52.398;9.646;2024-02-14T10:15:21;7.87;;;6.10;;
8159;SDS011;27404;52.398;9.646;2024-02-14T10:17:47;7.50;;;6.03;;
8159;SDS011;27404;52.398;9.646;2024-02-14T10:20:16;6.63;;;5.93;;
8159;SDS011;27404;52.398;9.646;2024-02-14T10:22:42;8.30;;;5.97;;
8159;SDS011;27404;52.398;9.646;2024-02-14T10:25:09;8.80;;;6.30;;
8159;SDS011;27404;52.398;9.646;2024-02-14T10:27:38;6.37;;;5.77;;
8159;SDS011;27404;52.398;9.646;2024-02-14T10:30:08;8.03;;;5.30;;
8159;SDS011;27404;52.398;9.646;2024-02-14T10:32:34;6.83;;;5.43;;
8159;SDS011;27404;52.398;9.646;2024-02-14T10:35:06;7.23;;;5.20;;
8159;SDS011;27404;52.398;9.646;2024-02-14T10:37:37;8.03;;;5.07;;
8159;SDS011;27404;52.398;9.646;2024-02-14T10:40:03;5.10;;;4.20;;
8159;SDS011;27404;52.398;9.646;2024-02-14T10:42:33;5.10;;;4.60;;
8159;SDS011;27404;52.398;9.646;2024-02-14T10:44:59;6.93;;;4.37;;
8159;SDS011;27404;52.398;9.646;2024-02-14T10:47:25;5.70;;;4.60;;
8159;SDS011;27404;52.398;9.646;2024-02-14T10:50:00;5.10;;;4.30;;
8159;SDS011;27404;52.398;9.646;2024-02-14T10:52:35;4.63;;;4.13;;
8159;SDS011;27404;52.398;9.646;2024-02-14T10:55:02;5.07;;;4.00;;
8159;SDS011;27404;52.398;9.646;2024-02-14T10:57:29;6.20;;;4.43;;
8159;SDS011;27404;52.398;9.646;2024-02-14T10:59:54;4.70;;;4.23;;
8159;SDS011;27404;52.398;9.646;2024-02-14T11:02:22;4.33;;;3.83;;
8159;SDS011;27404;52.398;9.646;2024-02-14T11:04:48;5.70;;;4.33;;
8159;SDS011;27404;52.398;9.646;2024-02-14T11:07:18;5.77;;;4.50;;
8159;SDS011;27404;52.398;9.646;2024-02-14T11:09:47;4.57;;;3.90;;
8159;SDS011;27404;52.398;9.646;2024-02-14T11:12:13;5.57;;;4.50;;
8159;SDS011;27404;52.398;9.646;2024-02-14T11:14:41;5.77;;;5.10;;
8159;SDS011;27404;52.398;9.646;2024-02-14T11:17:12;5.13;;;4.10;;
8159;SDS011;27404;52.398;9.646;2024-02-14T11:19:38;5.00;;;4.30;;
8159;SDS011;27404;52.398;9.646;2024-02-14T11:22:11;4.30;;;3.70;;
8159;SDS011;27404;52.398;9.646;2024-02-14T11:24:47;5.80;;;4.17;;
8159;SDS011;27404;52.398;9.646;2024-02-14T11:27:13;4.90;;;3.63;;
8159;SDS011;27404;52.398;9.646;2024-02-14T11:29:39;4.83;;;3.80;;
8159;SDS011;27404;52.398;9.646;2024-02-14T11:32:08;3.97;;;3.57;;
8159;SDS011;27404;52.398;9.646;2024-02-14T11:34:36;4.00;;;3.47;;
8159;SDS011;27404;52.398;9.646;2024-02-14T11:37:01;5.00;;;3.53;;
8159;SDS011;27404;52.398;9.646;2024-02-14T11:39:27;5.23;;;3.97;;
8159;SDS011;27404;52.398;9.646;2024-02-14T11:41:52;4.60;;;3.80;;
8159;SDS011;27404;52.398;9.646;2024-02-14T11:44:21;4.57;;;4.10;;
8159;SDS011;27404;52.398;9.646;2024-02-14T11:46:50;5.00;;;4.50;;
8159;SDS011;27404;52.398;9.646;2024-02-14T11:49:16;5.67;;;4.43;;
8159;SDS011;27404;52.398;9.646;2024-02-14T11:51:42;4.97;;;4.40;;
8159;SDS011;27404;52.398;9.646;2024-02-14T11:54:08;4.50;;;3.90;;
8159;SDS011;27404;52.398;9.646;2024-02-14T11:56:35;6.77;;;4.33;;
8159;SDS011;27404;52.398;9.646;2024-02-14T11:59:03;6.60;;;4.77;;
8159;SDS011;27404;52.398;9.646;2024-02-14T12:01:36;5.03;;;4.53;;
8159;SDS011;27404;52.398;9.646;2024-02-14T12:04:05;5.30;;;4.50;;
8159;SDS011;27404;52.398;9.646;2024-02-14T12:06:34;5.60;;;4.40;;
8159;SDS011;27404;52.398;9.646;2024-02-14T12:09:03;6.20;;;4.60;;
8159;SDS011;27404;52.398;9.646;2024-02-14T12:11:33;5.87;;;5.00;;
8159;SDS011;27404;52.398;9.646;2024-02-14T12:14:05;7.17;;;5.30;;
8159;SDS011;27404;52.398;9.646;2024-02-14T12:16:33;7.67;;;5.83;;
8159;SDS011;27404;52.398;9.646;2024-02-14T12:19:16;8.27;;;5.80;;
8159;SDS011;27404;52.398;9.646;2024-02-14T12:21:42;7.83;;;6.53;;
8159;SDS011;27404;52.398;9.646;2024-02-14T12:24:11;7.90;;;6.77;;
8159;SDS011;27404;52.398;9.646;2024-02-14T12:26:39;8.23;;;6.20;;
8159;SDS011;27404;52.398;9.646;2024-02-14T12:29:06;7.47;;;6.33;;
8159;SDS011;27404;52.398;9.646;2024-02-14T12:31:35;7.53;;;6.23;;
8159;SDS011;27404;52.398;9.646;2024-02-14T12:34:02;7.37;;;6.27;;
8159;SDS011;27404;52.398;9.646;2024-02-14T12:36:30;9.20;;;6.37;;
8159;SDS011;27404;52.398;9.646;2024-02-14T12:38:57;9.37;;;7.60;;
8159;SDS011;27404;52.398;9.646;2024-02-14T12:41:23;8.10;;;5.93;;
8159;SDS011;27404;52.398;9.646;2024-02-14T12:43:49;6.17;;;5.47;;
8159;SDS011;27404;52.398;9.646;2024-02-14T12:46:15;7.27;;;5.90;;
8159;SDS011;27404;52.398;9.646;2024-02-14T12:48:40;7.83;;;7.03;;
8159;SDS011;27404;52.398;9.646;2024-02-14T12:51:06;8.20;;;7.13;;
8159;SDS011;27404;52.398;9.646;2024-02-14T12:53:33;11.33;;;8.10;;
8159;SDS011;27404;52.398;9.646;2024-02-14T12:55:59;9.97;;;8.20;;
8159;SDS011;27404;52.398;9.646;2024-02-14T12:58:24;8.77;;;7.30;;
8159;SDS011;27404;52.398;9.646;2024-02-14T13:00:50;7.90;;;6.93;;
8159;SDS011;27404;52.398;9.646;2024-02-14T13:03:15;7.73;;;6.33;;
8159;SDS011;27404;52.398;9.646;2024-02-14T13:05:41;8.77;;;6.97;;
8159;SDS011;27404;52.398;9.646;2024-02-14T13:08:06;7.70;;;6.47;;
8159;SDS011;27404;52.398;9.646;2024-02-14T13:10:36;6.83;;;6.07;;
8159;SDS011;27404;52.398;9.646;2024-02-14T13:13:01;9.03;;;6.00;;
8159;SDS011;27404;52.398;9.646;2024-02-14T13:15:27;11.50;;;6.70;;
8159;SDS011;27404;52.398;9.646;2024-02-14T13:17:53;8.17;;;6.50;;
8159;SDS011;27404;52.398;9.646;2024-02-14T13:20:18;7.23;;;6.30;;
8159;SDS011;27404;52.398;9.646;2024-02-14T13:22:44;10.87;;;7.07;;
8159;SDS011;27404;52.398;9.646;2024-02-14T13:25:09;7.30;;;6.47;;
8159;SDS011;27404;52.398;9.646;2024-02-14T13:27:35;8.43;;;5.70;;
8159;SDS011;27404;52.398;9.646;2024-02-14T13:30:01;7.87;;;5.70;;
8159;SDS011;27404;52.398;9.646;2024-02-14T13:32:27;5.83;;;5.30;;
8159;SDS011;27404;52.398;9.646;2024-02-14T13:34:52;8.47;;;5.77;;
8159;SDS011;27404;52.398;9.646;2024-02-14T13:37:18;6.63;;;5.10;;
8159;SDS011;27404;52.398;9.646;2024-02-14T13:39:44;6.63;;;5.13;;
8159;SDS011;27404;52.398;9.646;2024-02-14T13:42:10;6.03;;;5.33;;
8159;SDS011;27404;52.398;9.646;2024-02-14T13:44:36;5.87;;;5.27;;
8159;SDS011;27404;52.398;9.646;2024-02-14T13:47:01;6.00;;;5.00;;
8159;SDS011;27404;52.398;9.646;2024-02-14T13:49:28;5.30;;;4.80;;
8159;SDS011;27404;52.398;9.646;2024-02-14T13:51:53;5.83;;;4.50;;
8159;SDS011;27404;52.398;9.646;2024-02-14T13:54:19;5.33;;;4.80;;
8159;SDS011;27404;52.398;9.646;2024-02-14T13:56:45;7.20;;;5.20;;
8159;SDS011;27404;52.398;9.646;2024-02-14T13:59:13;7.43;;;5.67;;
8159;SDS011;27404;52.398;9.646;2024-02-14T14:01:39;6.57;;;5.00;;
8159;SDS011;27404;52.398;9.646;2024-02-14T14:04:04;7.17;;;4.90;;
8159;SDS011;27404;52.398;9.646;2024-02-14T14:06:30;4.43;;;3.50;;
8159;SDS011;27404;52.398;9.646;2024-02-14T14:08:56;5.00;;;4.07;;
8159;SDS011;27404;52.398;9.646;2024-02-14T14:11:21;5.47;;;4.00;;
8159;SDS011;27404;52.398;9.646;2024-02-14T14:13:47;4.37;;;3.43;;
8159;SDS011;27404;52.398;9.646;2024-02-14T14:16:12;3.97;;;3.37;;
8159;SDS011;27404;52.398;9.646;2024-02-14T14:18:38;4.40;;;3.60;;
8159;SDS011;27404;52.398;9.646;2024-02-14T14:21:04;4.93;;;3.23;;
8159;SDS011;27404;52.398;9.646;2024-02-14T14:23:30;3.47;;;3.17;;
8159;SDS011;27404;52.398;9.646;2024-02-14T14:25:55;3.90;;;3.53;;
8159;SDS011;27404;52.398;9.646;2024-02-14T14:28:21;4.77;;;3.47;;
8159;SDS011;27404;52.398;9.646;2024-02-14T14:30:53;3.80;;;3.40;;
8159;SDS011;27404;52.398;9.646;2024-02-14T14:33:21;5.20;;;3.40;;
8159;SDS011;27404;52.398;9.646;2024-02-14T14:35:47;4.00;;;3.60;;
8159;SDS011;27404;52.398;9.646;2024-02-14T14:38:15;4.03;;;3.23;;
8159;SDS011;27404;52.398;9.646;2024-02-14T14:40:40;4.67;;;3.40;;
8159;SDS011;27404;52.398;9.646;2024-02-14T14:43:06;4.33;;;3.63;;
8159;SDS011;27404;52.398;9.646;2024-02-14T14:45:32;4.63;;;4.00;;
8159;SDS011;27404;52.398;9.646;2024-02-14T14:47:58;4.63;;;3.77;;
8159;SDS011;27404;52.398;9.646;2024-02-14T14:50:23;7.43;;;4.00;;
8159;SDS011;27404;52.398;9.646;2024-02-14T14:52:50;6.03;;;4.17;;
8159;SDS011;27404;52.398;9.646;2024-02-14T14:55:17;4.57;;;4.17;;